MST,Max TemperatureF,Mean TemperatureF,Min TemperatureF,Max Dew PointF,MeanDew PointF,Min DewpointF,Max Humidity, Mean Humidity, Min Humidity, Max Sea Level PressureIn, Mean Sea Level PressureIn, Min Sea Level PressureIn, Max VisibilityMiles, Mean VisibilityMiles, Min VisibilityMiles, Max Wind SpeedMPH, Mean Wind SpeedMPH, Max Gust SpeedMPH,PrecipitationIn, CloudCover, Events, WindDirDegrees
2013-2-1,48,39,30,29,25,21,75,56,36,30.29,30.14,30.04,10,10,10,26,13,33,T,4,,245
2013-2-2,50,41,31,25,23,21,69,54,39,30.38,30.28,30.15,10,10,10,23,15,28,0.00,0,,222
2013-2-3,50,42,33,23,20,17,61,46,31,30.11,29.99,29.91,10,10,10,33,18,41,0.00,1,,225
2013-2-4,47,41,34,25,24,22,59,50,41,29.96,29.87,29.79,10,10,10,36,19,44,0.00,3,,234
2013-2-5,51,42,33,27,25,23,64,52,39,29.95,29.82,29.71,10,10,10,30,16,37,0.00,2,,222
2013-2-6,47,37,26,22,20,16,63,46,28,30.10,29.95,29.80,10,10,10,31,16,36,0.00,0,,225
2013-2-7,47,36,24,20,17,14,68,47,26,30.09,29.99,29.93,10,10,10,20,11,22,0.00,2,,207
2013-2-8,44,32,19,22,17,15,81,57,33,30.06,30.01,29.87,10,10,10,13,6,14,0.00,0,,225
2013-2-9,41,30,19,29,23,13,92,65,37,30.12,29.96,29.83,10,7,0,25,12,30,0.09,6,Fog-Snow,306
2013-2-10,30,21,12,22,16,9,81,70,58,30.31,30.20,30.01,10,10,6,18,9,23,T,5,Snow,307
2013-2-11,39,28,17,23,17,9,69,60,50,30.19,30.07,30.01,10,10,10,26,18,33,0.00,0,,206
2013-2-12,46,37,27,24,22,18,69,54,38,30.11,30.02,29.88,10,10,10,36,19,44,0.00,1,,225
2013-2-13,50,38,25,27,22,14,85,55,24,30.32,30.07,29.86,10,6,0,38,19,44,0.09,5,Fog-Snow,340
2013-2-14,33,26,18,23,19,14,88,76,63,30.48,30.38,30.26,10,7,2,13,8,14,0.02,6,Snow,226
2013-2-15,48,33,18,29,22,13,77,62,46,30.49,30.36,30.17,10,10,10,23,14,28,0.00,0,,223
2013-2-16,53,45,37,31,26,25,64,48,32,30.17,29.94,29.69,10,10,10,35,20,43,T,1,Rain,226
2013-2-17,40,33,26,30,26,20,85,69,52,30.16,29.91,29.72,10,5,0,22,12,28,0.20,8,Fog-Snow,323
2013-2-18,32,26,19,23,19,12,92,77,62,30.22,30.10,29.99,10,6,2,13,7,15,0.02,5,Snow,182
2013-2-19,32,23,14,20,16,12,84,69,53,29.96,29.88,29.77,10,10,4,14,6,18,0.00,3,,88
2013-2-20,27,20,13,20,17,10,92,84,75,30.02,29.92,29.78,10,7,0,7,2,8,T,7,Snow,129
2013-2-21,34,25,15,18,15,10,84,68,51,30.05,29.99,29.91,10,10,9,23,13,28,0.00,2,,215
2013-2-22,40,30,20,24,20,13,68,58,48,29.96,29.79,29.56,10,10,10,33,20,41,0.00,0,,220
2013-2-23,40,33,25,27,22,12,85,59,33,30.12,29.80,29.53,10,8,0,28,16,35,T,6,Snow,247
2013-2-24,42,32,22,21,17,13,75,56,37,30.22,30.11,29.99,10,10,10,28,17,33,0.00,1,,223
2013-2-25,43,36,29,20,18,16,58,47,36,29.99,29.88,29.80,10,10,10,36,19,43,0.00,2,,222
2013-2-26,40,31,22,24,20,15,75,60,44,30.30,30.15,29.94,10,8,1,17,8,21,0.01,6,Snow,269
2013-2-27,46,33,20,18,15,12,71,50,28,30.31,30.26,30.12,10,10,10,28,14,32,0.00,2,,223
2013-2-28,51,37,22,27,20,14,68,45,22,30.31,30.25,30.15,10,10,10,23,13,36,0.00,2,,233